Time,TemperatureF,DewpointF,PressureIn,WindDirection,WindDirectionDegrees,WindSpeedMPH,WindSpeedGustMPH,Humidity,HourlyPrecipIn,Conditions,Clouds,dailyrainin,SoftwareType,DateUTC
2013-11-23 00:22:00,58.0,25.0,29.93,ENE,60,7.0,-999.0,28,-99.99,,,-99.99,,2013-11-23 08:22:00,
2013-11-23 00:32:00,58.0,25.0,29.93,ENE,60,7.0,-999.0,28,-99.99,,,-99.99,,2013-11-23 08:32:00,
2013-11-23 00:42:00,58.0,25.0,29.93,ENE,60,7.0,-999.0,28,-99.99,,,-99.99,,2013-11-23 08:42:00,
2013-11-23 00:52:00,58.0,25.0,29.93,ENE,60,7.0,-999.0,28,-99.99,,,-99.99,,2013-11-23 08:52:00,
2013-11-23 01:01:00,58.0,25.0,29.93,ENE,60,7.0,-999.0,28,-99.99,,,-99.99,,2013-11-23 09:01:00,
2013-11-23 02:23:00,57.0,25.0,29.96,NE,56,14.0,-999.0,29,-99.99,,,-99.99,,2013-11-23 10:23:00,
2013-11-23 02:34:00,57.0,25.0,29.96,NE,56,14.0,-999.0,29,-99.99,,,-99.99,,2013-11-23 10:34:00,
2013-11-23 02:42:00,57.0,25.0,29.96,NE,56,14.0,-999.0,29,-99.99,,,-99.99,,2013-11-23 10:42:00,
2013-11-23 02:52:00,57.0,25.0,29.96,NE,56,14.0,-999.0,29,-99.99,,,-99.99,,2013-11-23 10:52:00,
2013-11-23 03:02:00,57.0,25.0,29.96,NE,56,14.0,-999.0,29,-99.99,,,-99.99,,2013-11-23 11:02:00,
2013-11-23 04:22:00,55.0,29.0,29.97,East,88,9.0,-999.0,36,-99.99,,,-99.99,,2013-11-23 12:22:00,
2013-11-23 04:32:00,55.0,29.0,29.97,East,88,9.0,-999.0,36,-99.99,,,-99.99,,2013-11-23 12:32:00,
2013-11-23 04:42:00,55.0,29.0,29.97,East,88,9.0,-999.0,36,-99.99,,,-99.99,,2013-11-23 12:42:00,
2013-11-23 04:52:00,55.0,29.0,29.97,East,88,9.0,-999.0,36,-99.99,,,-99.99,,2013-11-23 12:52:00,
2013-11-23 06:22:00,53.0,29.0,30.00,East,92,2.0,-999.0,40,-99.99,,,-99.99,,2013-11-23 14:22:00,
2013-11-23 06:32:00,53.0,29.0,30.00,East,92,2.0,-999.0,40,-99.99,,,-99.99,,2013-11-23 14:32:00,
2013-11-23 06:42:00,53.0,29.0,30.00,East,92,2.0,-999.0,40,-99.99,,,-99.99,,2013-11-23 14:42:00,
2013-11-23 06:52:00,53.0,29.0,30.00,East,92,2.0,-999.0,40,-99.99,,,-99.99,,2013-11-23 14:52:00,
2013-11-23 07:02:00,53.0,29.0,30.00,East,92,2.0,-999.0,40,-99.99,,,-99.99,,2013-11-23 15:02:00,
2013-11-23 08:23:00,54.0,33.0,30.03,East,96,4.0,-999.0,45,-99.99,,,-99.99,,2013-11-23 16:23:00,
2013-11-23 08:33:00,54.0,33.0,30.03,East,96,4.0,-999.0,45,-99.99,,,-99.99,,2013-11-23 16:33:00,
2013-11-23 08:43:00,54.0,33.0,30.03,East,96,4.0,-999.0,45,-99.99,,,-99.99,,2013-11-23 16:43:00,
2013-11-23 08:53:00,54.0,33.0,30.03,East,96,4.0,-999.0,45,-99.99,,,-99.99,,2013-11-23 16:53:00,
2013-11-23 09:02:00,54.0,33.0,30.03,East,96,4.0,-999.0,45,-99.99,,,-99.99,,2013-11-23 17:02:00,
2013-11-23 10:22:00,57.0,27.0,30.03,ENE,59,11.0,-999.0,32,-99.99,,,-99.99,,2013-11-23 18:22:00,
2013-11-23 10:33:00,57.0,27.0,30.03,ENE,59,11.0,-999.0,32,-99.99,,,-99.99,,2013-11-23 18:33:00,
2013-11-23 10:42:00,57.0,27.0,30.03,ENE,59,11.0,-999.0,32,-99.99,,,-99.99,,2013-11-23 18:42:00,
2013-11-23 10:52:00,57.0,27.0,30.03,ENE,59,11.0,-999.0,32,-99.99,,,-99.99,,2013-11-23 18:52:00,
2013-11-23 11:01:00,57.0,27.0,30.03,ENE,59,11.0,-999.0,32,-99.99,,,-99.99,,2013-11-23 19:01:00,
2013-11-23 12:22:00,60.0,30.0,30.01,East,84,5.0,-999.0,32,-99.99,,,-99.99,,2013-11-23 20:22:00,
2013-11-23 12:32:00,60.0,30.0,30.01,East,84,5.0,-999.0,32,-99.99,,,-99.99,,2013-11-23 20:32:00,
2013-11-23 12:42:00,60.0,30.0,30.01,East,84,5.0,-999.0,32,-99.99,,,-99.99,,2013-11-23 20:42:00,
2013-11-23 12:52:00,60.0,30.0,30.01,East,84,5.0,-999.0,32,-99.99,,,-99.99,,2013-11-23 20:52:00,
2013-11-23 13:02:00,60.0,30.0,30.01,East,84,5.0,-999.0,32,-99.99,,,-99.99,,2013-11-23 21:02:00,
2013-11-23 14:23:00,63.0,29.0,29.99,ENE,73,2.0,-999.0,27,-99.99,,,-99.99,,2013-11-23 22:23:00,
2013-11-23 14:33:00,63.0,29.0,29.99,ENE,73,2.0,-999.0,27,-99.99,,,-99.99,,2013-11-23 22:33:00,
2013-11-23 14:43:00,63.0,29.0,29.99,ENE,73,2.0,-999.0,27,-99.99,,,-99.99,,2013-11-23 22:43:00,
2013-11-23 14:52:00,63.0,29.0,29.99,ENE,73,2.0,-999.0,27,-99.99,,,-99.99,,2013-11-23 22:52:00,
2013-11-23 15:02:00,63.0,29.0,29.99,ENE,73,2.0,-999.0,27,-99.99,,,-99.99,,2013-11-23 23:02:00,
2013-11-23 16:22:00,59.0,41.0,29.99,SW,221,6.0,-999.0,52,-99.99,,,-99.99,,2013-11-24 00:22:00,
2013-11-23 16:32:00,59.0,41.0,29.99,SW,221,6.0,-999.0,52,-99.99,,,-99.99,,2013-11-24 00:32:00,
2013-11-23 16:42:00,59.0,41.0,29.99,SW,221,6.0,-999.0,52,-99.99,,,-99.99,,2013-11-24 00:42:00,
2013-11-23 16:52:00,59.0,41.0,29.99,SW,221,6.0,-999.0,52,-99.99,,,-99.99,,2013-11-24 00:52:00,
2013-11-23 17:01:00,59.0,41.0,29.99,SW,221,6.0,-999.0,52,-99.99,,,-99.99,,2013-11-24 01:01:00,
2013-11-23 18:22:00,56.0,47.0,30.02,West,260,8.0,-999.0,73,-99.99,,,-99.99,,2013-11-24 02:22:00,
2013-11-23 18:32:00,56.0,47.0,30.02,West,260,8.0,-999.0,73,-99.99,,,-99.99,,2013-11-24 02:32:00,
2013-11-23 18:42:00,56.0,47.0,30.02,West,260,8.0,-999.0,73,-99.99,,,-99.99,,2013-11-24 02:42:00,
2013-11-23 18:52:00,56.0,47.0,30.02,West,260,8.0,-999.0,73,-99.99,,,-99.99,,2013-11-24 02:52:00,
2013-11-23 19:02:00,56.0,47.0,30.02,West,260,8.0,-999.0,73,-99.99,,,-99.99,,2013-11-24 03:02:00,
2013-11-23 20:23:00,54.0,50.0,30.05,WNW,291,7.0,-999.0,85,-99.99,,,-99.99,,2013-11-24 04:23:00,
2013-11-23 20:33:00,54.0,50.0,30.05,WNW,291,7.0,-999.0,85,-99.99,,,-99.99,,2013-11-24 04:33:00,
2013-11-23 20:43:00,54.0,50.0,30.05,WNW,291,7.0,-999.0,85,-99.99,,,-99.99,,2013-11-24 04:43:00,
2013-11-23 20:53:00,54.0,50.0,30.05,WNW,291,7.0,-999.0,85,-99.99,,,-99.99,,2013-11-24 04:53:00,
2013-11-23 21:02:00,54.0,50.0,30.05,WNW,291,7.0,-999.0,85,-99.99,,,-99.99,,2013-11-24 05:02:00,
2013-11-23 22:22:00,53.0,50.0,30.07,WSW,242,5.0,-999.0,88,-99.99,,,-99.99,,2013-11-24 06:22:00,
2013-11-23 22:32:00,53.0,50.0,30.07,WSW,242,5.0,-999.0,88,-99.99,,,-99.99,,2013-11-24 06:32:00,
2013-11-23 22:42:00,53.0,50.0,30.07,WSW,242,5.0,-999.0,88,-99.99,,,-99.99,,2013-11-24 06:42:00,
2013-11-23 22:52:00,53.0,50.0,30.07,WSW,242,5.0,-999.0,88,-99.99,,,-99.99,,2013-11-24 06:52:00,
2013-11-23 23:02:00,53.0,50.0,30.07,WSW,242,5.0,-999.0,88,-99.99,,,-99.99,,2013-11-24 07:02:00,